sensor_id;sensor_type;location;lat;lon;timestamp;P1;durP1;ratioP1;P2;durP2;ratioP2
23119;SDS011;11729;50.836;4.330;2023-06-10T00:02:20;10.80;;;9.75;;
23119;SDS011;11729;50.836;4.330;2023-06-10T00:04:46;10.73;;;9.73;;
23119;SDS011;11729;50.836;4.330;2023-06-10T00:07:12;10.70;;;9.80;;
23119;SDS011;11729;50.836;4.330;2023-06-10T00:09:38;10.57;;;9.57;;
23119;SDS011;11729;50.836;4.330;2023-06-10T00:12:04;10.32;;;9.43;;
23119;SDS011;11729;50.836;4.330;2023-06-10T00:14:37;13.23;;;10.25;;
23119;SDS011;11729;50.836;4.330;2023-06-10T00:17:05;11.38;;;9.77;;
23119;SDS011;11729;50.836;4.330;2023-06-10T00:19:35;10.13;;;9.18;;
23119;SDS011;11729;50.836;4.330;2023-06-10T00:22:01;14.77;;;10.90;;
23119;SDS011;11729;50.836;4.330;2023-06-10T00:24:28;11.27;;;9.85;;
23119;SDS011;11729;50.836;4.330;2023-06-10T00:26:53;12.77;;;9.88;;
23119;SDS011;11729;50.836;4.330;2023-06-10T00:29:19;10.43;;;9.48;;
23119;SDS011;11729;50.836;4.330;2023-06-10T00:31:45;11.20;;;10.10;;
23119;SDS011;11729;50.836;4.330;2023-06-10T00:34:11;16.05;;;10.05;;
23119;SDS011;11729;50.836;4.330;2023-06-10T00:36:37;11.35;;;9.63;;
23119;SDS011;11729;50.836;4.330;2023-06-10T00:39:03;10.70;;;9.43;;
23119;SDS011;11729;50.836;4.330;2023-06-10T00:41:29;10.68;;;9.65;;
23119;SDS011;11729;50.836;4.330;2023-06-10T00:43:55;15.40;;;9.80;;
23119;SDS011;11729;50.836;4.330;2023-06-10T00:46:21;11.50;;;9.45;;
23119;SDS011;11729;50.836;4.330;2023-06-10T00:48:48;10.98;;;9.88;;
23119;SDS011;11729;50.836;4.330;2023-06-10T00:51:15;11.45;;;10.25;;
23119;SDS011;11729;50.836;4.330;2023-06-10T00:53:41;12.05;;;9.65;;
23119;SDS011;11729;50.836;4.330;2023-06-10T00:56:08;11.68;;;10.23;;
23119;SDS011;11729;50.836;4.330;2023-06-10T00:58:34;11.27;;;10.18;;
23119;SDS011;11729;50.836;4.330;2023-06-10T01:01:01;11.05;;;9.93;;
23119;SDS011;11729;50.836;4.330;2023-06-10T01:03:26;12.65;;;9.85;;
23119;SDS011;11729;50.836;4.330;2023-06-10T01:08:55;10.98;;;9.93;;
23119;SDS011;11729;50.836;4.330;2023-06-10T01:11:34;10.73;;;9.63;;
23119;SDS011;11729;50.836;4.330;2023-06-10T01:14:06;11.38;;;10.18;;
23119;SDS011;11729;50.836;4.330;2023-06-10T01:19:02;11.43;;;10.40;;
23119;SDS011;11729;50.836;4.330;2023-06-10T01:21:28;11.07;;;10.07;;
23119;SDS011;11729;50.836;4.330;2023-06-10T01:23:56;11.05;;;10.05;;
23119;SDS011;11729;50.836;4.330;2023-06-10T01:26:24;10.60;;;9.50;;
23119;SDS011;11729;50.836;4.330;2023-06-10T01:28:57;11.02;;;9.82;;
23119;SDS011;11729;50.836;4.330;2023-06-10T01:34:13;11.52;;;10.10;;
23119;SDS011;11729;50.836;4.330;2023-06-10T01:36:41;11.68;;;9.70;;
23119;SDS011;11729;50.836;4.330;2023-06-10T01:39:11;19.38;;;11.07;;
23119;SDS011;11729;50.836;4.330;2023-06-10T01:41:37;15.40;;;10.10;;
23119;SDS011;11729;50.836;4.330;2023-06-10T01:44:05;11.32;;;10.25;;
23119;SDS011;11729;50.836;4.330;2023-06-10T01:46:31;10.50;;;9.40;;
23119;SDS011;11729;50.836;4.330;2023-06-10T01:48:57;11.30;;;10.25;;
23119;SDS011;11729;50.836;4.330;2023-06-10T01:51:25;11.82;;;9.82;;
23119;SDS011;11729;50.836;4.330;2023-06-10T01:53:51;13.95;;;10.20;;
23119;SDS011;11729;50.836;4.330;2023-06-10T01:56:20;13.00;;;10.00;;
23119;SDS011;11729;50.836;4.330;2023-06-10T01:58:46;11.73;;;10.00;;
23119;SDS011;11729;50.836;4.330;2023-06-10T02:01:12;12.27;;;10.00;;
23119;SDS011;11729;50.836;4.330;2023-06-10T02:03:37;14.05;;;10.38;;
23119;SDS011;11729;50.836;4.330;2023-06-10T02:06:03;12.77;;;10.02;;
23119;SDS011;11729;50.836;4.330;2023-06-10T02:08:29;11.10;;;9.98;;
23119;SDS011;11729;50.836;4.330;2023-06-10T02:10:54;11.38;;;9.88;;
23119;SDS011;11729;50.836;4.330;2023-06-10T02:13:20;16.88;;;10.25;;
23119;SDS011;11729;50.836;4.330;2023-06-10T02:15:46;15.52;;;10.27;;
23119;SDS011;11729;50.836;4.330;2023-06-10T02:18:11;11.30;;;10.20;;
23119;SDS011;11729;50.836;4.330;2023-06-10T02:20:37;10.40;;;9.48;;
23119;SDS011;11729;50.836;4.330;2023-06-10T02:23:03;12.48;;;9.82;;
23119;SDS011;11729;50.836;4.330;2023-06-10T02:25:29;11.85;;;10.25;;
23119;SDS011;11729;50.836;4.330;2023-06-10T02:27:54;11.30;;;10.15;;
23119;SDS011;11729;50.836;4.330;2023-06-10T02:30:20;10.80;;;9.70;;
23119;SDS011;11729;50.836;4.330;2023-06-10T02:32:46;11.82;;;10.10;;
23119;SDS011;11729;50.836;4.330;2023-06-10T02:35:13;11.07;;;10.07;;
23119;SDS011;11729;50.836;4.330;2023-06-10T02:37:39;11.93;;;10.68;;
23119;SDS011;11729;50.836;4.330;2023-06-10T02:40:06;12.43;;;11.13;;
23119;SDS011;11729;50.836;4.330;2023-06-10T02:42:32;12.00;;;10.80;;
23119;SDS011;11729;50.836;4.330;2023-06-10T02:44:57;11.50;;;10.35;;
23119;SDS011;11729;50.836;4.330;2023-06-10T02:47:23;12.02;;;10.73;;
23119;SDS011;11729;50.836;4.330;2023-06-10T02:49:49;11.23;;;10.13;;
23119;SDS011;11729;50.836;4.330;2023-06-10T02:52:14;12.25;;;10.98;;
23119;SDS011;11729;50.836;4.330;2023-06-10T02:54:40;11.95;;;10.82;;
23119;SDS011;11729;50.836;4.330;2023-06-10T02:57:06;11.30;;;10.20;;
23119;SDS011;11729;50.836;4.330;2023-06-10T02:59:32;15.88;;;10.38;;
23119;SDS011;11729;50.836;4.330;2023-06-10T03:01:58;11.35;;;10.30;;
23119;SDS011;11729;50.836;4.330;2023-06-10T03:04:26;12.10;;;10.90;;
23119;SDS011;11729;50.836;4.330;2023-06-10T03:06:54;13.57;;;11.00;;
23119;SDS011;11729;50.836;4.330;2023-06-10T03:09:20;14.20;;;10.80;;
23119;SDS011;11729;50.836;4.330;2023-06-10T03:11:45;21.35;;;15.00;;
23119;SDS011;11729;50.836;4.330;2023-06-10T03:14:11;31.30;;;26.38;;
23119;SDS011;11729;50.836;4.330;2023-06-10T03:16:37;28.00;;;24.02;;
23119;SDS011;11729;50.836;4.330;2023-06-10T03:19:05;20.80;;;16.75;;
23119;SDS011;11729;50.836;4.330;2023-06-10T03:21:32;19.58;;;15.48;;
23119;SDS011;11729;50.836;4.330;2023-06-10T03:23:58;14.30;;;12.52;;
23119;SDS011;11729;50.836;4.330;2023-06-10T03:26:24;14.02;;;11.60;;
23119;SDS011;11729;50.836;4.330;2023-06-10T03:28:51;12.00;;;10.77;;
23119;SDS011;11729;50.836;4.330;2023-06-10T03:31:16;16.35;;;11.90;;
23119;SDS011;11729;50.836;4.330;2023-06-10T03:33:42;13.43;;;11.75;;
23119;SDS011;11729;50.836;4.330;2023-06-10T03:36:08;16.23;;;12.30;;
23119;SDS011;11729;50.836;4.330;2023-06-10T03:38:34;21.25;;;14.82;;
23119;SDS011;11729;50.836;4.330;2023-06-10T03:41:00;20.40;;;16.10;;
23119;SDS011;11729;50.836;4.330;2023-06-10T03:43:26;17.75;;;14.68;;
23119;SDS011;11729;50.836;4.330;2023-06-10T03:45:52;14.82;;;12.95;;
23119;SDS011;11729;50.836;4.330;2023-06-10T03:48:18;20.33;;;14.65;;
23119;SDS011;11729;50.836;4.330;2023-06-10T03:50:43;18.08;;;13.10;;
23119;SDS011;11729;50.836;4.330;2023-06-10T03:53:09;15.00;;;13.30;;
23119;SDS011;11729;50.836;4.330;2023-06-10T03:55:35;16.00;;;13.05;;
23119;SDS011;11729;50.836;4.330;2023-06-10T03:58:01;14.57;;;13.07;;
23119;SDS011;11729;50.836;4.330;2023-06-10T04:00:27;16.45;;;12.35;;
23119;SDS011;11729;50.836;4.330;2023-06-10T04:02:53;15.75;;;12.55;;
23119;SDS011;11729;50.836;4.330;2023-06-10T04:05:23;14.07;;;12.35;;
23119;SDS011;11729;50.836;4.330;2023-06-10T04:07:48;13.88;;;12.15;;
23119;SDS011;11729;50.836;4.330;2023-06-10T04:10:15;15.38;;;13.02;;
23119;SDS011;11729;50.836;4.330;2023-06-10T04:12:41;13.77;;;12.40;;
23119;SDS011;11729;50.836;4.330;2023-06-10T04:15:07;13.50;;;12.07;;
23119;SDS011;11729;50.836;4.330;2023-06-10T04:17:33;17.75;;;12.05;;
23119;SDS011;11729;50.836;4.330;2023-06-10T04:19:58;13.57;;;12.00;;
23119;SDS011;11729;50.836;4.330;2023-06-10T04:22:25;13.85;;;11.82;;
23119;SDS011;11729;50.836;4.330;2023-06-10T04:24:51;15.70;;;11.57;;
23119;SDS011;11729;50.836;4.330;2023-06-10T04:27:17;12.45;;;11.05;;
23119;SDS011;11729;50.836;4.330;2023-06-10T04:29:43;13.15;;;11.38;;
23119;SDS011;11729;50.836;4.330;2023-06-10T04:32:08;12.95;;;11.70;;
23119;SDS011;11729;50.836;4.330;2023-06-10T04:34:34;13.02;;;11.07;;
23119;SDS011;11729;50.836;4.330;2023-06-10T04:37:00;13.50;;;12.02;;
23119;SDS011;11729;50.836;4.330;2023-06-10T04:39:26;14.70;;;11.68;;
23119;SDS011;11729;50.836;4.330;2023-06-10T04:41:52;13.20;;;11.80;;
23119;SDS011;11729;50.836;4.330;2023-06-10T04:44:18;12.73;;;11.55;;
23119;SDS011;11729;50.836;4.330;2023-06-10T04:46:43;13.98;;;11.85;;
23119;SDS011;11729;50.836;4.330;2023-06-10T04:49:10;13.25;;;11.45;;
23119;SDS011;11729;50.836;4.330;2023-06-10T04:51:36;15.38;;;12.32;;
23119;SDS011;11729;50.836;4.330;2023-06-10T04:54:02;12.43;;;11.15;;
23119;SDS011;11729;50.836;4.330;2023-06-10T04:56:29;12.35;;;11.05;;
23119;SDS011;11729;50.836;4.330;2023-06-10T04:58:56;12.43;;;11.20;;
23119;SDS011;11729;50.836;4.330;2023-06-10T05:01:22;12.38;;;11.15;;
23119;SDS011;11729;50.836;4.330;2023-06-10T05:03:48;14.15;;;11.80;;
23119;SDS011;11729;50.836;4.330;2023-06-10T05:06:14;14.82;;;11.10;;
23119;SDS011;11729;50.836;4.330;2023-06-10T05:08:39;12.57;;;11.40;;
23119;SDS011;11729;50.836;4.330;2023-06-10T05:11:05;12.38;;;11.07;;
23119;SDS011;11729;50.836;4.330;2023-06-10T05:13:31;13.95;;;10.85;;
23119;SDS011;11729;50.836;4.330;2023-06-10T05:15:57;12.32;;;11.10;;
23119;SDS011;11729;50.836;4.330;2023-06-10T05:18:23;12.10;;;10.90;;
23119;SDS011;11729;50.836;4.330;2023-06-10T05:20:49;12.98;;;11.68;;
23119;SDS011;11729;50.836;4.330;2023-06-10T05:23:15;13.90;;;11.50;;
23119;SDS011;11729;50.836;4.330;2023-06-10T05:25:40;12.40;;;11.20;;
23119;SDS011;11729;50.836;4.330;2023-06-10T05:28:07;12.52;;;11.20;;
23119;SDS011;11729;50.836;4.330;2023-06-10T05:33:00;12.68;;;11.40;;
23119;SDS011;11729;50.836;4.330;2023-06-10T05:35:26;12.38;;;11.02;;
23119;SDS011;11729;50.836;4.330;2023-06-10T05:37:52;15.48;;;11.70;;
23119;SDS011;11729;50.836;4.330;2023-06-10T05:40:17;12.55;;;10.93;;
23119;SDS011;11729;50.836;4.330;2023-06-10T05:42:43;19.48;;;11.60;;
23119;SDS011;11729;50.836;4.330;2023-06-10T05:45:09;15.45;;;11.40;;
23119;SDS011;11729;50.836;4.330;2023-06-10T05:47:35;13.15;;;11.48;;
23119;SDS011;11729;50.836;4.330;2023-06-10T05:50:01;13.30;;;10.95;;
23119;SDS011;11729;50.836;4.330;2023-06-10T05:52:27;12.80;;;10.65;;
23119;SDS011;11729;50.836;4.330;2023-06-10T05:54:53;11.77;;;10.63;;
23119;SDS011;11729;50.836;4.330;2023-06-10T05:57:19;13.98;;;10.32;;
23119;SDS011;11729;50.836;4.330;2023-06-10T05:59:45;11.35;;;10.13;;
23119;SDS011;11729;50.836;4.330;2023-06-10T06:02:10;14.05;;;10.07;;
23119;SDS011;11729;50.836;4.330;2023-06-10T06:04:36;10.75;;;9.65;;
23119;SDS011;11729;50.836;4.330;2023-06-10T06:07:02;14.20;;;10.07;;
23119;SDS011;11729;50.836;4.330;2023-06-10T06:09:27;11.68;;;10.13;;
23119;SDS011;11729;50.836;4.330;2023-06-10T06:11:53;14.98;;;9.95;;
23119;SDS011;11729;50.836;4.330;2023-06-10T06:14:18;12.73;;;10.20;;
23119;SDS011;11729;50.836;4.330;2023-06-10T06:16:44;13.15;;;10.00;;
23119;SDS011;11729;50.836;4.330;2023-06-10T06:19:10;11.02;;;9.65;;
23119;SDS011;11729;50.836;4.330;2023-06-10T06:21:36;12.68;;;9.93;;
23119;SDS011;11729;50.836;4.330;2023-06-10T06:24:02;12.95;;;9.57;;
23119;SDS011;11729;50.836;4.330;2023-06-10T06:26:27;11.57;;;9.50;;
23119;SDS011;11729;50.836;4.330;2023-06-10T06:28:53;10.48;;;9.50;;
23119;SDS011;11729;50.836;4.330;2023-06-10T06:31:18;10.35;;;9.13;;
23119;SDS011;11729;50.836;4.330;2023-06-10T06:33:44;10.85;;;9.75;;
23119;SDS011;11729;50.836;4.330;2023-06-10T06:36:10;11.63;;;10.32;;
23119;SDS011;11729;50.836;4.330;2023-06-10T06:38:35;11.73;;;9.85;;
23119;SDS011;11729;50.836;4.330;2023-06-10T06:41:02;10.57;;;9.38;;
23119;SDS011;11729;50.836;4.330;2023-06-10T06:43:31;11.07;;;9.80;;
23119;SDS011;11729;50.836;4.330;2023-06-10T06:45:56;10.85;;;9.68;;
23119;SDS011;11729;50.836;4.330;2023-06-10T06:48:22;10.23;;;9.23;;
23119;SDS011;11729;50.836;4.330;2023-06-10T06:50:49;10.70;;;9.68;;
23119;SDS011;11729;50.836;4.330;2023-06-10T06:53:15;10.80;;;9.48;;
23119;SDS011;11729;50.836;4.330;2023-06-10T06:55:41;10.95;;;9.85;;
23119;SDS011;11729;50.836;4.330;2023-06-10T06:58:06;11.40;;;9.50;;
23119;SDS011;11729;50.836;4.330;2023-06-10T07:00:32;11.90;;;9.35;;
23119;SDS011;11729;50.836;4.330;2023-06-10T07:02:58;9.95;;;9.02;;
23119;SDS011;11729;50.836;4.330;2023-06-10T07:05:24;12.30;;;9.32;;
23119;SDS011;11729;50.836;4.330;2023-06-10T07:07:55;10.25;;;9.00;;
23119;SDS011;11729;50.836;4.330;2023-06-10T07:10:21;10.30;;;9.30;;
23119;SDS011;11729;50.836;4.330;2023-06-10T07:12:48;10.52;;;8.90;;
23119;SDS011;11729;50.836;4.330;2023-06-10T07:15:14;14.70;;;9.10;;
23119;SDS011;11729;50.836;4.330;2023-06-10T07:17:39;11.38;;;9.30;;
23119;SDS011;11729;50.836;4.330;2023-06-10T07:20:05;14.15;;;9.20;;
23119;SDS011;11729;50.836;4.330;2023-06-10T07:22:31;8.80;;;7.95;;
23119;SDS011;11729;50.836;4.330;2023-06-10T07:24:57;10.07;;;9.05;;
23119;SDS011;11729;50.836;4.330;2023-06-10T07:27:23;9.52;;;8.70;;
23119;SDS011;11729;50.836;4.330;2023-06-10T07:29:48;11.73;;;8.90;;
23119;SDS011;11729;50.836;4.330;2023-06-10T07:32:15;16.77;;;9.95;;
23119;SDS011;11729;50.836;4.330;2023-06-10T07:34:41;9.40;;;8.50;;
23119;SDS011;11729;50.836;4.330;2023-06-10T07:37:07;9.70;;;8.75;;
23119;SDS011;11729;50.836;4.330;2023-06-10T07:39:33;9.85;;;8.88;;
23119;SDS011;11729;50.836;4.330;2023-06-10T07:41:59;9.25;;;8.30;;
23119;SDS011;11729;50.836;4.330;2023-06-10T07:44:25;13.03;;;9.13;;
23119;SDS011;11729;50.836;4.330;2023-06-10T07:46:51;9.15;;;8.40;;
23119;SDS011;11729;50.836;4.330;2023-06-10T07:49:17;9.82;;;8.80;;
23119;SDS011;11729;50.836;4.330;2023-06-10T07:51:42;10.00;;;9.00;;
23119;SDS011;11729;50.836;4.330;2023-06-10T07:54:08;12.90;;;9.07;;
23119;SDS011;11729;50.836;4.330;2023-06-10T07:56:34;11.02;;;8.23;;
23119;SDS011;11729;50.836;4.330;2023-06-10T07:58:59;10.73;;;8.35;;
23119;SDS011;11729;50.836;4.330;2023-06-10T08:01:25;10.23;;;8.30;;
23119;SDS011;11729;50.836;4.330;2023-06-10T08:03:51;8.38;;;7.55;;
23119;SDS011;11729;50.836;4.330;2023-06-10T08:06:16;9.90;;;8.00;;
23119;SDS011;11729;50.836;4.330;2023-06-10T08:08:42;8.65;;;7.95;;
23119;SDS011;11729;50.836;4.330;2023-06-10T08:11:09;9.18;;;8.27;;
23119;SDS011;11729;50.836;4.330;2023-06-10T08:13:37;8.73;;;8.02;;
23119;SDS011;11729;50.836;4.330;2023-06-10T08:16:04;8.82;;;7.93;;
23119;SDS011;11729;50.836;4.330;2023-06-10T08:18:30;9.30;;;7.93;;
23119;SDS011;11729;50.836;4.330;2023-06-10T08:20:56;11.00;;;8.48;;
23119;SDS011;11729;50.836;4.330;2023-06-10T08:23:21;9.80;;;8.05;;
23119;SDS011;11729;50.836;4.330;2023-06-10T08:25:47;9.50;;;8.60;;
23119;SDS011;11729;50.836;4.330;2023-06-10T08:28:13;10.63;;;8.07;;
23119;SDS011;11729;50.836;4.330;2023-06-10T08:30:38;9.23;;;7.75;;
23119;SDS011;11729;50.836;4.330;2023-06-10T08:33:04;8.93;;;8.00;;
23119;SDS011;11729;50.836;4.330;2023-06-10T08:35:29;8.52;;;7.72;;
23119;SDS011;11729;50.836;4.330;2023-06-10T08:37:55;27.95;;;9.13;;
23119;SDS011;11729;50.836;4.330;2023-06-10T08:40:20;10.57;;;8.88;;
23119;SDS011;11729;50.836;4.330;2023-06-10T08:42:52;8.98;;;8.18;;
23119;SDS011;11729;50.836;4.330;2023-06-10T08:45:26;9.25;;;8.43;;
23119;SDS011;11729;50.836;4.330;2023-06-10T08:48:00;11.15;;;8.15;;
23119;SDS011;11729;50.836;4.330;2023-06-10T08:50:31;9.07;;;8.10;;
23119;SDS011;11729;50.836;4.330;2023-06-10T08:53:05;9.10;;;8.27;;
23119;SDS011;11729;50.836;4.330;2023-06-10T08:58:01;9.07;;;8.25;;
23119;SDS011;11729;50.836;4.330;2023-06-10T09:00:28;8.82;;;8.13;;
23119;SDS011;11729;50.836;4.330;2023-06-10T09:02:55;13.73;;;8.05;;
23119;SDS011;11729;50.836;4.330;2023-06-10T09:05:22;8.73;;;8.02;;
23119;SDS011;11729;50.836;4.330;2023-06-10T09:07:48;8.40;;;7.53;;
23119;SDS011;11729;50.836;4.330;2023-06-10T09:10:16;9.88;;;8.50;;
23119;SDS011;11729;50.836;4.330;2023-06-10T09:12:42;11.95;;;8.05;;
23119;SDS011;11729;50.836;4.330;2023-06-10T09:15:07;7.90;;;7.18;;
23119;SDS011;11729;50.836;4.330;2023-06-10T09:17:35;8.32;;;7.45;;
23119;SDS011;11729;50.836;4.330;2023-06-10T09:20:05;8.50;;;7.80;;
23119;SDS011;11729;50.836;4.330;2023-06-10T09:22:32;10.88;;;7.88;;
23119;SDS011;11729;50.836;4.330;2023-06-10T09:25:02;12.10;;;8.10;;
23119;SDS011;11729;50.836;4.330;2023-06-10T09:27:31;8.40;;;7.70;;
23119;SDS011;11729;50.836;4.330;2023-06-10T09:29:59;9.13;;;8.07;;
23119;SDS011;11729;50.836;4.330;2023-06-10T09:32:25;8.18;;;7.47;;
23119;SDS011;11729;50.836;4.330;2023-06-10T09:34:52;9.25;;;8.35;;
23119;SDS011;11729;50.836;4.330;2023-06-10T09:37:21;14.88;;;8.10;;
23119;SDS011;11729;50.836;4.330;2023-06-10T09:40:04;8.85;;;7.78;;
23119;SDS011;11729;50.836;4.330;2023-06-10T09:42:38;9.40;;;7.97;;
23119;SDS011;11729;50.836;4.330;2023-06-10T09:45:05;8.30;;;7.60;;
23119;SDS011;11729;50.836;4.330;2023-06-10T09:47:32;10.05;;;9.05;;
23119;SDS011;11729;50.836;4.330;2023-06-10T09:49:57;9.15;;;8.35;;
23119;SDS011;11729;50.836;4.330;2023-06-10T09:52:24;9.52;;;7.95;;
23119;SDS011;11729;50.836;4.330;2023-06-10T09:54:58;7.90;;;7.25;;
23119;SDS011;11729;50.836;4.330;2023-06-10T09:57:25;8.77;;;7.88;;
23119;SDS011;11729;50.836;4.330;2023-06-10T09:59:55;8.45;;;7.45;;
23119;SDS011;11729;50.836;4.330;2023-06-10T10:02:20;10.18;;;7.60;;
23119;SDS011;11729;50.836;4.330;2023-06-10T10:04:46;9.90;;;7.63;;
23119;SDS011;11729;50.836;4.330;2023-06-10T10:07:12;8.83;;;7.93;;
23119;SDS011;11729;50.836;4.330;2023-06-10T10:09:40;8.02;;;7.22;;
23119;SDS011;11729;50.836;4.330;2023-06-10T10:12:08;10.20;;;7.68;;
23119;SDS011;11729;50.836;4.330;2023-06-10T10:14:36;8.50;;;7.80;;
23119;SDS011;11729;50.836;4.330;2023-06-10T10:17:04;8.48;;;7.75;;
23119;SDS011;11729;50.836;4.330;2023-06-10T10:19:32;8.70;;;7.88;;
23119;SDS011;11729;50.836;4.330;2023-06-10T10:22:26;7.95;;;7.25;;
23119;SDS011;11729;50.836;4.330;2023-06-10T10:24:57;8.50;;;7.47;;
23119;SDS011;11729;50.836;4.330;2023-06-10T10:27:27;8.18;;;7.43;;
23119;SDS011;11729;50.836;4.330;2023-06-10T10:30:14;10.23;;;7.80;;
23119;SDS011;11729;50.836;4.330;2023-06-10T10:32:47;9.45;;;7.75;;
23119;SDS011;11729;50.836;4.330;2023-06-10T10:35:24;7.70;;;7.10;;
23119;SDS011;11729;50.836;4.330;2023-06-10T10:37:54;10.80;;;7.50;;
23119;SDS011;11729;50.836;4.330;2023-06-10T10:40:20;7.95;;;7.15;;
23119;SDS011;11729;50.836;4.330;2023-06-10T10:42:47;8.00;;;7.30;;
23119;SDS011;11729;50.836;4.330;2023-06-10T10:45:15;8.52;;;7.63;;
23119;SDS011;11729;50.836;4.330;2023-06-10T10:47:41;8.55;;;7.75;;
23119;SDS011;11729;50.836;4.330;2023-06-10T10:50:17;8.07;;;7.28;;
23119;SDS011;11729;50.836;4.330;2023-06-10T10:55:19;12.75;;;7.63;;
23119;SDS011;11729;50.836;4.330;2023-06-10T10:57:53;8.35;;;7.05;;
23119;SDS011;11729;50.836;4.330;2023-06-10T11:05:31;14.55;;;7.82;;
23119;SDS011;11729;50.836;4.330;2023-06-10T11:08:01;7.68;;;7.05;;
23119;SDS011;11729;50.836;4.330;2023-06-10T11:10:33;9.13;;;7.47;;
23119;SDS011;11729;50.836;4.330;2023-06-10T11:13:02;7.75;;;7.05;;
23119;SDS011;11729;50.836;4.330;2023-06-10T11:15:39;9.90;;;7.32;;
23119;SDS011;11729;50.836;4.330;2023-06-10T11:31:29;7.38;;;6.78;;
23119;SDS011;11729;50.836;4.330;2023-06-10T11:36:21;8.25;;;7.03;;
23119;SDS011;11729;50.836;4.330;2023-06-10T11:38:47;8.80;;;8.00;;
23119;SDS011;11729;50.836;4.330;2023-06-10T11:41:14;8.37;;;7.50;;
23119;SDS011;11729;50.836;4.330;2023-06-10T11:43:43;8.83;;;8.03;;
23119;SDS011;11729;50.836;4.330;2023-06-10T11:46:09;12.63;;;7.72;;
23119;SDS011;11729;50.836;4.330;2023-06-10T11:48:39;9.00;;;6.97;;
23119;SDS011;11729;50.836;4.330;2023-06-10T11:51:16;7.97;;;7.28;;
23119;SDS011;11729;50.836;4.330;2023-06-10T11:53:43;12.02;;;7.63;;
23119;SDS011;11729;50.836;4.330;2023-06-10T11:56:10;8.50;;;7.60;;
23119;SDS011;11729;50.836;4.330;2023-06-10T11:58:35;8.48;;;7.63;;
23119;SDS011;11729;50.836;4.330;2023-06-10T12:01:03;8.55;;;7.57;;
23119;SDS011;11729;50.836;4.330;2023-06-10T12:03:36;8.52;;;7.35;;
23119;SDS011;11729;50.836;4.330;2023-06-10T12:06:05;9.27;;;7.82;;
23119;SDS011;11729;50.836;4.330;2023-06-10T12:08:32;8.73;;;7.53;;
23119;SDS011;11729;50.836;4.330;2023-06-10T12:10:58;8.45;;;7.60;;
23119;SDS011;11729;50.836;4.330;2023-06-10T12:13:26;8.85;;;7.93;;
23119;SDS011;11729;50.836;4.330;2023-06-10T12:15:52;9.95;;;7.90;;
23119;SDS011;11729;50.836;4.330;2023-06-10T12:18:21;8.50;;;7.63;;
23119;SDS011;11729;50.836;4.330;2023-06-10T12:20:48;8.65;;;7.80;;
23119;SDS011;11729;50.836;4.330;2023-06-10T12:23:16;10.52;;;7.85;;
23119;SDS011;11729;50.836;4.330;2023-06-10T12:25:54;8.18;;;7.57;;
23119;SDS011;11729;50.836;4.330;2023-06-10T12:28:21;9.13;;;8.20;;
23119;SDS011;11729;50.836;4.330;2023-06-10T12:33:16;9.10;;;7.73;;
23119;SDS011;11729;50.836;4.330;2023-06-10T12:35:49;9.68;;;7.30;;
23119;SDS011;11729;50.836;4.330;2023-06-10T12:38:22;15.70;;;8.00;;
23119;SDS011;11729;50.836;4.330;2023-06-10T12:40:54;10.20;;;7.85;;
23119;SDS011;11729;50.836;4.330;2023-06-10T12:43:26;10.27;;;7.90;;
23119;SDS011;11729;50.836;4.330;2023-06-10T12:45:52;9.65;;;7.63;;
23119;SDS011;11729;50.836;4.330;2023-06-10T12:48:18;11.70;;;8.02;;
23119;SDS011;11729;50.836;4.330;2023-06-10T12:50:55;8.60;;;7.78;;
23119;SDS011;11729;50.836;4.330;2023-06-10T12:53:23;10.38;;;7.90;;
23119;SDS011;11729;50.836;4.330;2023-06-10T12:55:50;15.27;;;8.00;;
23119;SDS011;11729;50.836;4.330;2023-06-10T12:58:16;8.85;;;7.95;;
23119;SDS011;11729;50.836;4.330;2023-06-10T13:00:42;8.77;;;7.88;;
23119;SDS011;11729;50.836;4.330;2023-06-10T13:03:09;10.13;;;8.57;;
23119;SDS011;11729;50.836;4.330;2023-06-10T13:05:35;8.18;;;7.47;;
23119;SDS011;11729;50.836;4.330;2023-06-10T13:08:05;8.55;;;7.75;;
23119;SDS011;11729;50.836;4.330;2023-06-10T13:10:32;9.38;;;8.32;;
23119;SDS011;11729;50.836;4.330;2023-06-10T13:12:59;13.87;;;7.90;;
23119;SDS011;11729;50.836;4.330;2023-06-10T13:15:26;9.57;;;7.93;;
23119;SDS011;11729;50.836;4.330;2023-06-10T13:17:52;10.93;;;8.68;;
23119;SDS011;11729;50.836;4.330;2023-06-10T13:20:18;8.80;;;7.95;;
23119;SDS011;11729;50.836;4.330;2023-06-10T13:22:44;10.32;;;8.45;;
23119;SDS011;11729;50.836;4.330;2023-06-10T13:25:11;11.10;;;8.25;;
23119;SDS011;11729;50.836;4.330;2023-06-10T13:27:38;11.10;;;8.35;;
23119;SDS011;11729;50.836;4.330;2023-06-10T13:30:04;9.50;;;8.60;;
23119;SDS011;11729;50.836;4.330;2023-06-10T13:32:34;8.73;;;7.93;;
23119;SDS011;11729;50.836;4.330;2023-06-10T13:35:00;11.27;;;8.00;;
23119;SDS011;11729;50.836;4.330;2023-06-10T13:37:26;21.80;;;9.35;;
23119;SDS011;11729;50.836;4.330;2023-06-10T13:39:52;9.77;;;8.13;;
23119;SDS011;11729;50.836;4.330;2023-06-10T13:42:18;13.52;;;8.32;;
23119;SDS011;11729;50.836;4.330;2023-06-10T13:47:12;13.52;;;8.82;;
23119;SDS011;11729;50.836;4.330;2023-06-10T13:49:38;8.98;;;8.18;;
23119;SDS011;11729;50.836;4.330;2023-06-10T13:52:05;8.90;;;8.00;;
23119;SDS011;11729;50.836;4.330;2023-06-10T13:54:31;11.15;;;8.02;;
23119;SDS011;11729;50.836;4.330;2023-06-10T13:56:57;9.27;;;8.38;;
23119;SDS011;11729;50.836;4.330;2023-06-10T13:59:24;10.15;;;8.40;;
23119;SDS011;11729;50.836;4.330;2023-06-10T14:01:49;10.32;;;8.18;;
23119;SDS011;11729;50.836;4.330;2023-06-10T14:04:15;9.60;;;8.32;;
23119;SDS011;11729;50.836;4.330;2023-06-10T14:06:40;10.68;;;8.48;;
23119;SDS011;11729;50.836;4.330;2023-06-10T14:09:06;11.73;;;8.85;;
23119;SDS011;11729;50.836;4.330;2023-06-10T14:11:32;9.30;;;8.45;;
23119;SDS011;11729;50.836;4.330;2023-06-10T14:13:57;15.25;;;10.20;;
23119;SDS011;11729;50.836;4.330;2023-06-10T14:16:26;17.85;;;15.90;;
23119;SDS011;11729;50.836;4.330;2023-06-10T14:18:52;13.50;;;9.20;;
23119;SDS011;11729;50.836;4.330;2023-06-10T14:21:18;9.75;;;8.77;;
23119;SDS011;11729;50.836;4.330;2023-06-10T14:23:43;12.82;;;8.38;;
23119;SDS011;11729;50.836;4.330;2023-06-10T14:26:10;9.83;;;8.80;;
23119;SDS011;11729;50.836;4.330;2023-06-10T14:28:37;8.90;;;8.00;;
23119;SDS011;11729;50.836;4.330;2023-06-10T14:31:03;9.80;;;8.40;;
23119;SDS011;11729;50.836;4.330;2023-06-10T14:33:29;10.25;;;8.70;;
23119;SDS011;11729;50.836;4.330;2023-06-10T14:35:56;12.95;;;7.93;;
23119;SDS011;11729;50.836;4.330;2023-06-10T14:38:22;9.20;;;8.35;;
23119;SDS011;11729;50.836;4.330;2023-06-10T14:40:51;11.55;;;8.68;;
23119;SDS011;11729;50.836;4.330;2023-06-10T14:43:17;10.40;;;8.40;;
23119;SDS011;11729;50.836;4.330;2023-06-10T14:45:45;11.43;;;9.15;;
23119;SDS011;11729;50.836;4.330;2023-06-10T14:48:10;13.57;;;8.65;;
23119;SDS011;11729;50.836;4.330;2023-06-10T14:50:37;11.68;;;8.63;;
23119;SDS011;11729;50.836;4.330;2023-06-10T14:53:06;13.68;;;8.65;;
23119;SDS011;11729;50.836;4.330;2023-06-10T14:55:33;9.87;;;8.47;;
23119;SDS011;11729;50.836;4.330;2023-06-10T14:57:58;9.75;;;8.75;;
23119;SDS011;11729;50.836;4.330;2023-06-10T15:00:24;11.82;;;9.05;;
23119;SDS011;11729;50.836;4.330;2023-06-10T15:02:50;10.02;;;8.85;;
23119;SDS011;11729;50.836;4.330;2023-06-10T15:05:17;11.23;;;8.75;;
23119;SDS011;11729;50.836;4.330;2023-06-10T15:07:44;10.85;;;8.57;;
23119;SDS011;11729;50.836;4.330;2023-06-10T15:10:12;12.02;;;9.15;;
23119;SDS011;11729;50.836;4.330;2023-06-10T15:12:46;9.60;;;8.63;;
23119;SDS011;11729;50.836;4.330;2023-06-10T15:15:12;9.55;;;8.75;;